createdAt,value
2022-08-20T00:00:22.830Z,5.97
2022-08-20T00:00:49.253Z,5.88
2022-08-20T00:01:11.100Z,6.00
2022-08-20T00:01:33.064Z,5.95
2022-08-20T00:01:55.111Z,6.00
2022-08-20T00:02:17.006Z,6.20
2022-08-20T00:02:43.924Z,5.82
2022-08-20T00:03:16.105Z,5.70
2022-08-20T00:03:40.515Z,5.88
2022-08-20T00:04:02.417Z,5.70
2022-08-20T00:04:24.470Z,5.72
2022-08-20T00:04:46.742Z,6.20
2022-08-20T00:05:08.943Z,6.18
2022-08-20T00:05:34.576Z,5.65
2022-08-20T00:06:04.003Z,6.03
2022-08-20T00:06:25.788Z,5.93
2022-08-20T00:06:48.571Z,5.90
2022-08-20T00:07:10.354Z,6.03
2022-08-20T00:07:32.224Z,5.90
2022-08-20T00:07:55.874Z,5.97
2022-08-20T00:08:17.954Z,6.07
2022-08-20T00:08:40.798Z,6.05
2022-08-20T00:09:02.860Z,5.70
2022-08-20T00:09:24.646Z,5.50
2022-08-20T00:09:51.830Z,6.00
2022-08-20T00:10:13.960Z,5.90
2022-08-20T00:10:39.395Z,5.95
2022-08-20T00:11:02.947Z,5.80
2022-08-20T00:11:27.062Z,5.75
2022-08-20T00:11:50.910Z,6.10
2022-08-20T00:12:16.572Z,5.85
2022-08-20T00:12:43.936Z,5.57
2022-08-20T00:13:09.093Z,5.78
2022-08-20T00:13:41.855Z,5.78
2022-08-20T00:14:05.835Z,6.13
2022-08-20T00:14:27.788Z,6.10
2022-08-20T00:14:51.040Z,5.40
2022-08-20T00:15:16.004Z,5.53
2022-08-20T00:15:39.476Z,5.60
2022-08-20T00:16:01.422Z,6.05
2022-08-20T00:16:26.809Z,6.18
2022-08-20T00:16:48.579Z,6.00
2022-08-20T00:17:10.935Z,5.97
2022-08-20T00:17:37.185Z,5.90
2022-08-20T00:18:00.247Z,6.00
2022-08-20T00:18:22.728Z,6.45
2022-08-20T00:18:44.849Z,5.93
2022-08-20T00:19:09.508Z,5.95
2022-08-20T00:19:31.512Z,6.18
2022-08-20T00:19:53.475Z,6.43
2022-08-20T00:20:16.453Z,5.88
2022-08-20T00:20:42.480Z,6.00
2022-08-20T00:21:08.516Z,5.68
2022-08-20T00:21:31.419Z,6.20
2022-08-20T00:21:58.115Z,5.90
2022-08-20T00:22:20.314Z,5.88
2022-08-20T00:22:42.158Z,5.68
2022-08-20T00:23:08.472Z,5.85
2022-08-20T00:23:32.035Z,5.63
2022-08-20T00:23:55.933Z,5.82
2022-08-20T00:24:17.718Z,5.95
2022-08-20T00:24:39.566Z,5.85
2022-08-20T00:25:02.401Z,6.15
2022-08-20T00:25:26.129Z,6.07
2022-08-20T00:25:48.246Z,5.70
2022-08-20T00:26:11.221Z,5.80
2022-08-20T00:26:33.389Z,5.63
2022-08-20T00:26:55.262Z,5.38
2022-08-20T00:27:17.084Z,5.57
2022-08-20T00:27:39.134Z,5.50
2022-08-20T00:28:03.786Z,5.70
2022-08-20T00:28:25.551Z,6.20
2022-08-20T00:28:47.727Z,5.55
2022-08-20T00:29:09.511Z,5.80
2022-08-20T00:29:32.258Z,6.07
2022-08-20T00:29:54.422Z,5.70
2022-08-20T00:30:17.023Z,5.82
2022-08-20T00:30:39.920Z,6.13
2022-08-20T00:31:05.662Z,6.07
2022-08-20T00:31:27.798Z,5.70
2022-08-20T00:31:50.632Z,6.22
2022-08-20T00:32:12.495Z,6.18
2022-08-20T00:32:44.273Z,5.53
2022-08-20T00:33:11.402Z,5.75
2022-08-20T00:33:33.856Z,5.50
2022-08-20T00:33:55.769Z,5.60
2022-08-20T00:34:17.722Z,5.90
2022-08-20T00:34:39.713Z,5.80
2022-08-20T00:35:01.576Z,5.80
2022-08-20T00:35:28.915Z,5.85
2022-08-20T00:35:53.838Z,6.47
2022-08-20T00:36:17.517Z,5.88
2022-08-20T00:36:39.483Z,5.93
2022-08-20T00:37:01.344Z,6.03
2022-08-20T00:37:23.284Z,5.93
2022-08-20T00:37:45.437Z,5.75
2022-08-20T00:38:07.409Z,5.80
2022-08-20T00:38:29.258Z,5.65
2022-08-20T00:38:51.391Z,5.45
2022-08-20T00:39:13.557Z,6.05
2022-08-20T00:39:35.916Z,6.07
2022-08-20T00:39:58.852Z,5.60
2022-08-20T00:40:24.451Z,5.85
2022-08-20T00:40:56.409Z,5.95
2022-08-20T00:41:25.012Z,5.93
2022-08-20T00:41:46.879Z,5.65
2022-08-20T00:42:09.441Z,5.82
2022-08-20T00:42:41.854Z,6.28
2022-08-20T00:43:07.548Z,5.65
2022-08-20T00:43:32.336Z,5.93
2022-08-20T00:44:16.509Z,5.72
2022-08-20T00:44:45.197Z,5.40
2022-08-20T00:45:07.973Z,5.75
2022-08-20T00:45:31.867Z,5.50
2022-08-20T00:45:56.311Z,5.70
2022-08-20T00:46:28.209Z,5.60
2022-08-20T00:46:53.862Z,5.80
2022-08-20T00:47:15.689Z,5.97
2022-08-20T00:47:40.734Z,6.00
2022-08-20T00:48:12.898Z,5.50
2022-08-20T00:48:38.150Z,6.03
2022-08-20T00:49:02.457Z,5.70
2022-08-20T00:49:29.463Z,5.72
2022-08-20T00:49:51.296Z,5.90
2022-08-20T00:50:24.553Z,5.82
2022-08-20T00:50:46.446Z,5.90
2022-08-20T00:51:12.291Z,5.90
2022-08-20T00:51:41.746Z,5.80
2022-08-20T00:52:14.025Z,6.18
2022-08-20T00:52:36.788Z,6.03
2022-08-20T00:52:59.032Z,5.97
2022-08-20T00:53:24.327Z,5.70
2022-08-20T00:53:46.189Z,5.72
2022-08-20T00:54:07.942Z,5.95
2022-08-20T00:54:33.982Z,6.40
2022-08-20T00:54:58.726Z,6.00
2022-08-20T00:55:24.405Z,6.00
2022-08-20T00:55:48.311Z,5.68
2022-08-20T00:56:12.687Z,5.93
2022-08-20T00:56:35.549Z,6.00
2022-08-20T00:57:03.638Z,5.80
2022-08-20T00:58:00.535Z,5.90
2022-08-20T00:58:12.837Z,6.00
2022-08-20T00:58:37.341Z,6.20
2022-08-20T00:58:59.818Z,5.75
2022-08-20T00:59:27.354Z,5.88
2022-08-20T00:59:51.647Z,5.95
2022-08-20T01:00:19.463Z,5.82
2022-08-20T01:00:45.325Z,5.68
2022-08-20T01:01:08.662Z,6.10
2022-08-20T01:01:34.569Z,5.43
2022-08-20T01:02:17.878Z,5.63
2022-08-20T01:02:42.195Z,5.50
2022-08-20T01:03:08.642Z,5.60
2022-08-20T01:03:31.213Z,5.80
2022-08-20T01:03:56.475Z,5.80
2022-08-20T01:04:18.803Z,5.90
2022-08-20T01:04:43.807Z,5.65
2022-08-20T01:05:09.252Z,5.55
2022-08-20T01:05:31.217Z,5.88
2022-08-20T01:05:53.257Z,5.70
2022-08-20T01:06:15.109Z,5.85
2022-08-20T01:06:38.898Z,6.20
2022-08-20T01:07:04.705Z,6.25
2022-08-20T01:07:35.205Z,5.85
2022-08-20T01:07:58.387Z,6.00
2022-08-20T01:08:22.504Z,5.93
2022-08-20T01:08:44.623Z,5.88
2022-08-20T01:09:07.245Z,5.97
2022-08-20T01:09:50.260Z,5.70
2022-08-20T01:10:19.370Z,6.20
2022-08-20T01:10:45.067Z,6.20
2022-08-20T01:11:21.126Z,6.07
2022-08-20T01:11:44.713Z,5.90
2022-08-20T01:12:08.054Z,6.32
2022-08-20T01:12:30.795Z,6.45
2022-08-20T01:12:59.128Z,6.13
2022-08-20T01:13:24.227Z,6.03
2022-08-20T01:13:46.992Z,5.80
2022-08-20T01:14:27.094Z,5.85
2022-08-20T01:14:48.926Z,6.10
2022-08-20T01:15:15.729Z,5.78
2022-08-20T01:15:43.885Z,6.03
2022-08-20T01:16:13.584Z,6.28
2022-08-20T01:16:36.824Z,6.00
2022-08-20T01:17:06.281Z,5.70
2022-08-20T01:17:32.955Z,5.90
2022-08-20T01:17:58.566Z,5.78
2022-08-20T01:18:25.019Z,5.57
2022-08-20T01:18:48.472Z,5.90
2022-08-20T01:19:29.538Z,6.03
2022-08-20T01:19:57.314Z,5.78
2022-08-20T01:20:25.060Z,6.10
2022-08-20T01:20:51.435Z,5.78
2022-08-20T01:21:15.071Z,6.20
2022-08-20T01:21:37.603Z,6.03
2022-08-20T01:22:00.724Z,6.18
2022-08-20T01:23:07.340Z,6.00
2022-08-20T01:23:54.298Z,6.17
2022-08-20T01:24:24.767Z,6.13
2022-08-20T01:24:50.320Z,6.28
2022-08-20T01:25:21.687Z,5.80
2022-08-20T01:26:17.435Z,6.03
2022-08-20T01:26:45.243Z,5.85
2022-08-20T01:27:07.660Z,5.97
2022-08-20T01:27:32.180Z,5.90
2022-08-20T01:27:57.951Z,5.65
2022-08-20T01:28:27.891Z,6.05
2022-08-20T01:28:55.427Z,5.63
2022-08-20T01:29:23.750Z,6.13
2022-08-20T01:29:46.404Z,5.57
2022-08-20T01:30:09.031Z,5.93
2022-08-20T01:30:33.513Z,5.97
2022-08-20T01:30:55.874Z,6.03
2022-08-20T01:31:23.933Z,5.78
2022-08-20T01:31:46.134Z,6.18
2022-08-20T01:32:07.896Z,5.90
2022-08-20T01:32:29.692Z,5.88
2022-08-20T01:32:51.564Z,5.63
2022-08-20T01:33:13.447Z,5.70
2022-08-20T01:33:35.314Z,5.80
2022-08-20T01:33:59.648Z,5.90
2022-08-20T01:34:21.502Z,5.78
2022-08-20T01:34:43.283Z,5.95
2022-08-20T01:35:06.112Z,5.85
2022-08-20T01:35:31.864Z,5.55
2022-08-20T01:35:54.021Z,5.57
2022-08-20T01:36:17.896Z,5.95
2022-08-20T01:36:46.299Z,5.78
2022-08-20T01:37:08.391Z,6.00
2022-08-20T01:37:31.321Z,5.90
2022-08-20T01:37:53.494Z,5.78
2022-08-20T01:38:15.532Z,5.88
2022-08-20T01:38:38.380Z,5.80
2022-08-20T01:39:01.036Z,6.00
2022-08-20T01:39:27.871Z,6.05
2022-08-20T01:39:49.956Z,5.78
2022-08-20T01:40:17.491Z,5.68
2022-08-20T01:41:00.857Z,6.30
2022-08-20T01:41:28.876Z,6.05
2022-08-20T01:42:15.436Z,6.65
2022-08-20T01:42:51.149Z,6.63
2022-08-20T01:43:21.415Z,6.47
2022-08-20T01:43:46.641Z,5.82
2022-08-20T01:44:16.746Z,6.18
2022-08-20T01:44:42.834Z,6.43
2022-08-20T01:45:07.643Z,6.28
2022-08-20T01:45:31.691Z,6.40
2022-08-20T01:45:54.129Z,6.53
2022-08-20T01:46:18.221Z,6.82
2022-08-20T01:46:44.266Z,6.55
2022-08-20T01:47:17.064Z,6.07
2022-08-20T01:47:39.877Z,6.72
2022-08-20T01:48:05.618Z,6.82
2022-08-20T01:48:29.851Z,6.30
2022-08-20T01:48:52.162Z,6.55
2022-08-20T01:49:23.132Z,6.20
2022-08-20T01:49:52.524Z,6.18
2022-08-20T01:50:24.016Z,6.25
2022-08-20T01:50:55.396Z,6.63
2022-08-20T01:51:22.247Z,6.43
2022-08-20T01:51:44.680Z,6.55
2022-08-20T01:52:14.990Z,6.70
2022-08-20T01:52:42.816Z,6.45
2022-08-20T01:53:12.117Z,6.10
2022-08-20T01:53:41.659Z,6.68
2022-08-20T01:54:03.438Z,6.65
2022-08-20T01:54:25.867Z,6.50
2022-08-20T01:54:48.723Z,6.60
2022-08-20T01:55:11.124Z,6.78
2022-08-20T01:55:33.020Z,6.72
2022-08-20T01:55:55.136Z,6.32
2022-08-20T01:56:22.825Z,6.72
2022-08-20T01:57:14.308Z,6.30
2022-08-20T01:57:37.340Z,6.85
2022-08-20T01:57:59.934Z,6.80
2022-08-20T01:58:22.991Z,6.50
2022-08-20T01:58:49.722Z,6.85
2022-08-20T01:59:18.037Z,6.25
2022-08-20T01:59:41.743Z,6.38
2022-08-20T02:00:10.975Z,6.43
2022-08-20T02:00:41.107Z,6.78
2022-08-20T02:01:03.030Z,6.93
2022-08-20T02:01:46.869Z,7.00
2022-08-20T02:02:10.121Z,6.63
2022-08-20T02:02:31.886Z,6.57
2022-08-20T02:02:53.651Z,6.70
2022-08-20T02:03:15.572Z,6.20
2022-08-20T02:03:40.763Z,6.93
2022-08-20T02:04:09.037Z,6.78
2022-08-20T02:04:37.468Z,6.90
2022-08-20T02:05:00.930Z,6.82
2022-08-20T02:05:24.103Z,6.63
2022-08-20T02:05:53.417Z,7.57
2022-08-20T02:06:16.054Z,7.40
2022-08-20T02:06:56.178Z,7.03
2022-08-20T02:07:22.322Z,6.75
2022-08-20T02:07:44.144Z,6.97
2022-08-20T02:08:05.983Z,6.70
2022-08-20T02:08:28.486Z,6.80
2022-08-20T02:08:51.370Z,6.97
2022-08-20T02:09:16.180Z,7.20
2022-08-20T02:09:39.428Z,6.75
2022-08-20T02:10:01.481Z,6.90
2022-08-20T02:10:24.784Z,7.30
2022-08-20T02:10:47.135Z,6.78
2022-08-20T02:11:10.330Z,7.20
2022-08-20T02:11:34.601Z,6.72
2022-08-20T02:11:57.656Z,6.90
2022-08-20T02:12:19.784Z,6.93
2022-08-20T02:12:41.791Z,6.85
2022-08-20T02:13:05.758Z,7.10
2022-08-20T02:13:27.555Z,7.13
2022-08-20T02:13:52.680Z,7.03
2022-08-20T02:14:15.756Z,7.07
2022-08-20T02:14:47.103Z,6.68
2022-08-20T02:15:10.884Z,7.00
2022-08-20T02:15:37.086Z,6.93
2022-08-20T02:16:01.862Z,7.47
2022-08-20T02:16:29.192Z,7.05
2022-08-20T02:16:55.282Z,7.15
2022-08-20T02:17:19.166Z,6.97
2022-08-20T02:17:41.878Z,7.07
2022-08-20T02:18:10.395Z,7.40
2022-08-20T02:18:33.005Z,7.43
2022-08-20T02:18:58.616Z,7.47
2022-08-20T02:19:24.427Z,7.70
2022-08-20T02:19:51.937Z,7.57
2022-08-20T02:20:19.270Z,7.43
2022-08-20T02:20:43.690Z,7.60
2022-08-20T02:21:05.883Z,7.57
2022-08-20T02:21:31.517Z,7.35
2022-08-20T02:21:58.678Z,7.63
2022-08-20T02:22:29.444Z,7.50
2022-08-20T02:22:58.620Z,7.50
2022-08-20T02:23:20.834Z,7.60
2022-08-20T02:23:43.831Z,7.90
2022-08-20T02:24:05.858Z,7.13
2022-08-20T02:24:30.646Z,7.15
2022-08-20T02:24:52.928Z,7.18
2022-08-20T02:25:16.913Z,7.40
2022-08-20T02:25:42.083Z,7.45
2022-08-20T02:26:04.102Z,7.30
2022-08-20T02:26:26.813Z,7.38
2022-08-20T02:26:49.147Z,7.57
2022-08-20T02:27:11.582Z,7.13
2022-08-20T02:27:33.540Z,7.63
2022-08-20T02:27:57.147Z,7.13
2022-08-20T02:28:22.459Z,7.35
2022-08-20T02:28:45.263Z,7.43
2022-08-20T02:29:10.215Z,7.40
2022-08-20T02:29:32.413Z,7.35
2022-08-20T02:29:55.024Z,7.28
2022-08-20T02:30:28.042Z,7.37
2022-08-20T02:30:53.549Z,8.07
2022-08-20T02:31:16.668Z,7.78
2022-08-20T02:32:23.454Z,7.30
2022-08-20T02:32:24.948Z,7.50
2022-08-20T02:32:57.290Z,7.30
2022-08-20T02:33:24.324Z,7.50
2022-08-20T02:34:14.780Z,7.47
2022-08-20T02:34:29.298Z,7.40
2022-08-20T02:34:51.186Z,7.33
2022-08-20T02:35:14.893Z,8.05
2022-08-20T02:35:39.713Z,8.13
2022-08-20T02:36:02.134Z,7.88
2022-08-20T02:36:24.644Z,7.68
2022-08-20T02:36:49.326Z,7.63
2022-08-20T02:37:13.678Z,7.47
2022-08-20T02:37:37.749Z,7.53
2022-08-20T02:38:00.361Z,7.47
2022-08-20T02:38:22.288Z,7.70
2022-08-20T02:38:44.764Z,7.40
2022-08-20T02:39:09.849Z,7.53
2022-08-20T02:39:31.942Z,8.20
2022-08-20T02:39:53.728Z,8.02
2022-08-20T02:40:19.006Z,8.00
2022-08-20T02:40:52.526Z,7.55
2022-08-20T02:41:15.670Z,7.53
2022-08-20T02:41:39.047Z,7.90
2022-08-20T02:42:04.043Z,7.72
2022-08-20T02:42:27.863Z,7.80
2022-08-20T02:42:49.695Z,7.95
2022-08-20T02:43:12.545Z,7.57
2022-08-20T02:43:34.529Z,7.97
2022-08-20T02:43:57.121Z,7.90
2022-08-20T02:44:21.007Z,7.63
2022-08-20T02:44:43.535Z,7.60
2022-08-20T02:45:06.223Z,7.57
2022-08-20T02:45:30.007Z,7.45
2022-08-20T02:45:51.848Z,7.67
2022-08-20T02:46:15.887Z,8.32
2022-08-20T02:46:37.686Z,8.35
2022-08-20T02:47:01.955Z,7.97
2022-08-20T02:47:23.687Z,7.95
2022-08-20T02:47:46.560Z,8.40
2022-08-20T02:48:08.368Z,8.35
2022-08-20T02:48:31.353Z,7.93
2022-08-20T02:48:53.461Z,8.15
2022-08-20T02:49:17.217Z,7.40
2022-08-20T02:49:39.071Z,8.07
2022-08-20T02:50:00.837Z,8.27
2022-08-20T02:50:24.507Z,8.07
2022-08-20T02:50:47.927Z,7.90
2022-08-20T02:51:10.130Z,8.02
2022-08-20T02:51:31.966Z,7.78
2022-08-20T02:51:53.835Z,7.80
2022-08-20T02:52:15.842Z,7.90
2022-08-20T02:52:37.867Z,8.20
2022-08-20T02:52:59.890Z,8.15
2022-08-20T02:53:22.852Z,8.05
2022-08-20T02:53:44.847Z,7.78
2022-08-20T02:54:06.590Z,7.97
2022-08-20T02:54:29.337Z,8.15
2022-08-20T02:54:52.175Z,7.90
2022-08-20T02:55:18.806Z,7.90
2022-08-20T02:55:50.598Z,8.38
2022-08-20T02:56:12.984Z,8.20
2022-08-20T02:56:34.837Z,8.00
2022-08-20T02:56:56.936Z,8.38
2022-08-20T02:57:22.961Z,8.35
2022-08-20T02:57:45.354Z,8.35
2022-08-20T02:58:07.269Z,8.60
2022-08-20T02:58:29.394Z,8.02
2022-08-20T02:58:51.201Z,8.50
2022-08-20T02:59:19.114Z,8.43
2022-08-20T02:59:43.106Z,8.43
2022-08-20T03:00:14.053Z,8.85
2022-08-20T03:00:38.368Z,8.48
2022-08-20T03:01:01.354Z,8.52
2022-08-20T03:01:23.725Z,8.18
2022-08-20T03:01:45.671Z,8.45
2022-08-20T03:02:07.443Z,8.80
2022-08-20T03:02:29.828Z,8.77
2022-08-20T03:02:51.950Z,8.38
2022-08-20T03:03:15.274Z,8.93
2022-08-20T03:03:37.113Z,8.93
2022-08-20T03:04:03.169Z,8.97
2022-08-20T03:04:27.276Z,8.60
2022-08-20T03:04:49.569Z,8.50
2022-08-20T03:05:12.513Z,8.35
2022-08-20T03:05:34.652Z,8.65
2022-08-20T03:05:59.140Z,8.38
2022-08-20T03:06:22.072Z,8.40
2022-08-20T03:06:43.841Z,8.40
2022-08-20T03:07:06.835Z,8.65
2022-08-20T03:07:29.340Z,8.27
2022-08-20T03:07:59.628Z,8.40
2022-08-20T03:08:22.811Z,8.45
2022-08-20T03:08:45.085Z,8.65
2022-08-20T03:09:09.088Z,8.90
2022-08-20T03:09:31.022Z,8.95
2022-08-20T03:09:52.797Z,8.63
2022-08-20T03:10:15.156Z,8.77
2022-08-20T03:10:39.811Z,9.10
2022-08-20T03:11:01.675Z,8.60
2022-08-20T03:11:23.685Z,8.82
2022-08-20T03:11:45.427Z,9.05
2022-08-20T03:12:07.803Z,9.00
2022-08-20T03:12:29.621Z,9.63
2022-08-20T03:12:52.841Z,9.10
2022-08-20T03:13:15.954Z,8.32
2022-08-20T03:13:37.928Z,9.13
2022-08-20T03:13:59.761Z,8.63
2022-08-20T03:14:21.751Z,9.35
2022-08-20T03:14:43.986Z,8.93
2022-08-20T03:15:08.048Z,7.90
2022-08-20T03:15:47.511Z,8.70
2022-08-20T03:16:10.565Z,8.05
2022-08-20T03:16:33.163Z,8.55
2022-08-20T03:16:55.518Z,8.45
2022-08-20T03:17:17.436Z,8.32
2022-08-20T03:17:39.809Z,8.82
2022-08-20T03:18:02.764Z,8.77
2022-08-20T03:18:29.514Z,8.50
2022-08-20T03:18:53.069Z,8.57
2022-08-20T03:19:16.066Z,8.07
2022-08-20T03:19:38.269Z,8.05
2022-08-20T03:20:01.234Z,8.10
2022-08-20T03:20:24.517Z,7.75
2022-08-20T03:20:47.624Z,8.27
2022-08-20T03:21:14.841Z,7.45
2022-08-20T03:21:37.249Z,8.25
2022-08-20T03:21:59.139Z,7.90
2022-08-20T03:22:20.937Z,8.02
2022-08-20T03:22:43.179Z,7.82
2022-08-20T03:23:05.229Z,7.65
2022-08-20T03:23:27.080Z,7.95
2022-08-20T03:23:49.150Z,8.48
2022-08-20T03:24:10.961Z,8.35
2022-08-20T03:24:32.850Z,8.18
2022-08-20T03:24:55.788Z,8.30
2022-08-20T03:25:18.155Z,8.05
2022-08-20T03:25:40.028Z,8.18
2022-08-20T03:26:09.430Z,8.02
2022-08-20T03:26:31.504Z,8.00
2022-08-20T03:26:53.833Z,7.93
2022-08-20T03:27:15.599Z,7.57
2022-08-20T03:27:37.522Z,7.53
2022-08-20T03:27:59.964Z,7.97
2022-08-20T03:28:21.853Z,8.13
2022-08-20T03:28:43.763Z,7.75
2022-08-20T03:29:05.632Z,7.82
2022-08-20T03:29:27.622Z,8.07
2022-08-20T03:29:49.445Z,8.32
2022-08-20T03:30:15.521Z,7.88
2022-08-20T03:30:38.118Z,7.70
2022-08-20T03:31:00.165Z,8.13
2022-08-20T03:31:21.991Z,8.02
2022-08-20T03:31:43.778Z,8.40
2022-08-20T03:32:07.772Z,8.52
2022-08-20T03:32:29.694Z,7.97
2022-08-20T03:32:53.930Z,8.02
2022-08-20T03:33:16.457Z,7.83
2022-08-20T03:33:39.477Z,8.07
2022-08-20T03:34:15.027Z,7.80
2022-08-20T03:34:36.891Z,8.10
2022-08-20T03:34:58.691Z,7.90
2022-08-20T03:35:23.072Z,8.02
2022-08-20T03:35:44.873Z,8.03
2022-08-20T03:36:08.249Z,8.05
2022-08-20T03:36:30.556Z,8.10
2022-08-20T03:36:52.308Z,7.95
2022-08-20T03:37:14.387Z,8.23
2022-08-20T03:37:38.021Z,8.13
2022-08-20T03:38:11.177Z,8.00
2022-08-20T03:38:33.626Z,7.97
2022-08-20T03:39:00.526Z,8.15
2022-08-20T03:39:22.315Z,7.90
2022-08-20T03:39:44.155Z,7.90
2022-08-20T03:40:09.112Z,8.45
2022-08-20T03:40:33.618Z,8.20
2022-08-20T03:40:55.380Z,8.00
2022-08-20T03:41:17.313Z,8.10
2022-08-20T03:41:39.681Z,7.95
2022-08-20T03:42:01.538Z,7.85
2022-08-20T03:42:23.419Z,8.32
2022-08-20T03:42:45.709Z,8.63
2022-08-20T03:43:09.543Z,7.75
2022-08-20T03:43:32.508Z,8.02
2022-08-20T03:43:54.957Z,7.80
2022-08-20T03:44:16.732Z,8.23
2022-08-20T03:44:38.554Z,7.97
2022-08-20T03:45:01.035Z,8.05
2022-08-20T03:45:26.787Z,7.93
2022-08-20T03:45:48.774Z,7.85
2022-08-20T03:46:22.164Z,7.80
2022-08-20T03:46:45.482Z,8.02
2022-08-20T03:47:09.584Z,7.85
2022-08-20T03:47:32.149Z,7.97
2022-08-20T03:48:07.097Z,7.78
2022-08-20T03:48:29.445Z,8.27
2022-08-20T03:48:56.472Z,8.23
2022-08-20T03:49:23.963Z,7.97
2022-08-20T03:49:47.746Z,7.85
2022-08-20T03:50:11.410Z,7.43
2022-08-20T03:50:45.690Z,8.20
2022-08-20T03:51:07.632Z,8.02
2022-08-20T03:51:31.049Z,8.63
2022-08-20T03:51:58.020Z,8.57
2022-08-20T03:52:20.261Z,7.93
2022-08-20T03:52:42.242Z,7.95
2022-08-20T03:53:04.265Z,7.95
2022-08-20T03:53:31.721Z,8.20
2022-08-20T03:53:53.595Z,8.30
2022-08-20T03:54:15.415Z,7.93
2022-08-20T03:54:37.386Z,7.78
2022-08-20T03:54:59.170Z,7.85
2022-08-20T03:55:23.475Z,7.75
2022-08-20T03:55:53.964Z,7.85
2022-08-20T03:56:17.452Z,7.75
2022-08-20T03:56:39.323Z,8.45
2022-08-20T03:57:03.015Z,7.95
2022-08-20T03:57:34.704Z,8.10
2022-08-20T03:58:03.350Z,7.75
2022-08-20T03:58:31.618Z,8.27
2022-08-20T03:58:57.401Z,8.32
2022-08-20T03:59:19.159Z,8.20
2022-08-20T03:59:42.083Z,8.10
2022-08-20T04:00:07.171Z,8.18
2022-08-20T04:00:33.681Z,8.30
2022-08-20T04:00:56.411Z,7.75
2022-08-20T04:01:44.260Z,7.85
2022-08-20T04:02:00.965Z,8.13
2022-08-20T04:02:22.961Z,8.20
2022-08-20T04:02:44.918Z,7.93
2022-08-20T04:03:08.335Z,7.82
2022-08-20T04:03:30.350Z,7.78
2022-08-20T04:03:55.103Z,7.75
2022-08-20T04:04:17.140Z,7.80
2022-08-20T04:04:41.402Z,8.10
2022-08-20T04:05:03.439Z,8.13
2022-08-20T04:05:28.344Z,7.68
2022-08-20T04:05:51.964Z,8.60
2022-08-20T04:06:14.179Z,8.18
2022-08-20T04:06:36.161Z,7.55
2022-08-20T04:06:58.226Z,7.70
2022-08-20T04:07:25.733Z,7.82
2022-08-20T04:07:47.641Z,8.32
2022-08-20T04:08:16.369Z,8.45
2022-08-20T04:08:41.033Z,7.38
2022-08-20T04:09:04.101Z,7.97
2022-08-20T04:09:27.067Z,8.10
2022-08-20T04:09:48.820Z,8.00
2022-08-20T04:10:12.469Z,7.63
2022-08-20T04:10:34.773Z,8.10
2022-08-20T04:10:57.754Z,8.35
2022-08-20T04:11:19.778Z,8.00
2022-08-20T04:11:42.407Z,7.80
2022-08-20T04:12:04.630Z,7.45
2022-08-20T04:12:27.230Z,8.07
2022-08-20T04:12:53.220Z,7.97
2022-08-20T04:13:17.263Z,8.15
2022-08-20T04:13:41.908Z,7.57
2022-08-20T04:14:05.277Z,8.07
2022-08-20T04:14:27.095Z,8.18
2022-08-20T04:14:52.495Z,8.07
2022-08-20T04:15:17.033Z,7.55
2022-08-20T04:15:40.712Z,7.68
2022-08-20T04:16:10.150Z,7.80
2022-08-20T04:16:37.847Z,7.93
2022-08-20T04:17:03.776Z,7.88
2022-08-20T04:17:25.520Z,7.72
2022-08-20T04:17:50.435Z,7.97
2022-08-20T04:18:15.564Z,7.57
2022-08-20T04:18:37.467Z,7.63
2022-08-20T04:19:02.449Z,7.43
2022-08-20T04:19:24.668Z,7.80
2022-08-20T04:19:47.696Z,7.72
2022-08-20T04:20:12.750Z,8.15
2022-08-20T04:20:37.117Z,7.65
2022-08-20T04:20:58.905Z,7.63
2022-08-20T04:21:21.125Z,7.28
2022-08-20T04:21:43.350Z,7.78
2022-08-20T04:22:06.079Z,7.97
2022-08-20T04:22:28.110Z,8.20
2022-08-20T04:22:58.996Z,7.57
2022-08-20T04:23:22.728Z,8.07
2022-08-20T04:23:44.646Z,7.97
2022-08-20T04:24:07.671Z,7.65
2022-08-20T04:24:44.722Z,7.78
2022-08-20T04:25:08.943Z,7.65
2022-08-20T04:25:35.855Z,7.60
2022-08-20T04:25:58.677Z,7.70
2022-08-20T04:26:22.366Z,8.18
2022-08-20T04:26:44.120Z,8.02
2022-08-20T04:27:08.205Z,7.88
2022-08-20T04:27:32.729Z,7.97
2022-08-20T04:27:54.510Z,8.25
2022-08-20T04:28:30.224Z,8.13
2022-08-20T04:28:53.337Z,7.80
2022-08-20T04:29:15.294Z,8.13
2022-08-20T04:29:43.002Z,8.30
2022-08-20T04:30:14.493Z,7.70
2022-08-20T04:30:36.808Z,7.97
2022-08-20T04:31:01.146Z,8.10
2022-08-20T04:31:32.898Z,7.97
2022-08-20T04:31:55.864Z,7.68
2022-08-20T04:32:18.020Z,8.02
2022-08-20T04:32:42.181Z,8.35
2022-08-20T04:33:05.732Z,8.00
2022-08-20T04:33:33.995Z,8.00
2022-08-20T04:33:57.373Z,7.80
2022-08-20T04:34:19.631Z,7.63
2022-08-20T04:34:41.639Z,7.47
2022-08-20T04:35:08.357Z,7.88
2022-08-20T04:35:31.344Z,8.00
2022-08-20T04:35:54.415Z,7.80
2022-08-20T04:36:16.589Z,8.20
2022-08-20T04:36:40.760Z,8.38
2022-08-20T04:37:03.184Z,8.30
2022-08-20T04:37:24.949Z,7.80
2022-08-20T04:37:48.215Z,8.05
2022-08-20T04:38:14.875Z,7.70
2022-08-20T04:38:50.135Z,8.02
2022-08-20T04:39:12.927Z,8.10
2022-08-20T04:39:36.041Z,8.35
2022-08-20T04:40:16.492Z,8.07
2022-08-20T04:40:53.533Z,7.90
2022-08-20T04:41:22.581Z,7.90
2022-08-20T04:41:45.593Z,8.02
2022-08-20T04:42:07.589Z,8.07
2022-08-20T04:42:29.490Z,8.05
2022-08-20T04:42:53.297Z,7.88
2022-08-20T04:43:15.911Z,7.67
2022-08-20T04:43:38.718Z,7.82
2022-08-20T04:44:02.143Z,8.07
2022-08-20T04:44:24.070Z,8.00
2022-08-20T04:44:45.898Z,7.65
2022-08-20T04:45:08.921Z,7.97
2022-08-20T04:45:32.177Z,7.85
2022-08-20T04:45:55.603Z,7.65
2022-08-20T04:46:18.068Z,7.65
2022-08-20T04:46:41.889Z,7.90
2022-08-20T04:47:03.758Z,7.75
2022-08-20T04:47:34.425Z,7.85
2022-08-20T04:47:57.060Z,8.23
2022-08-20T04:48:20.864Z,8.05
2022-08-20T04:48:42.661Z,7.38
2022-08-20T04:49:12.299Z,7.80
2022-08-20T04:49:34.168Z,7.85
2022-08-20T04:50:00.393Z,7.88
2022-08-20T04:50:22.831Z,8.05
2022-08-20T04:50:46.943Z,8.00
2022-08-20T04:51:12.365Z,7.40
2022-08-20T04:51:34.572Z,7.97
2022-08-20T04:51:59.446Z,7.38
2022-08-20T04:52:21.472Z,7.68
2022-08-20T04:52:43.822Z,7.93
2022-08-20T04:53:09.091Z,7.47
2022-08-20T04:53:31.034Z,7.63
2022-08-20T04:53:54.686Z,7.75
2022-08-20T04:54:16.535Z,8.23
2022-08-20T04:54:38.298Z,7.78
2022-08-20T04:55:00.147Z,7.97
2022-08-20T04:55:22.473Z,7.60
2022-08-20T04:55:45.958Z,7.57
2022-08-20T04:56:08.363Z,7.75
2022-08-20T04:56:37.761Z,7.47
2022-08-20T04:57:01.541Z,7.75
2022-08-20T04:57:26.309Z,7.57
2022-08-20T04:57:50.526Z,7.80
2022-08-20T04:58:18.218Z,7.97
2022-08-20T04:58:41.093Z,8.20
2022-08-20T04:59:03.108Z,7.60
2022-08-20T04:59:24.909Z,7.32
2022-08-20T04:59:46.761Z,7.85
2022-08-20T05:00:14.178Z,7.95
2022-08-20T05:00:38.656Z,7.85
2022-08-20T05:01:11.453Z,7.20
2022-08-20T05:01:33.410Z,7.00
2022-08-20T05:01:55.285Z,7.63
2022-08-20T05:02:18.399Z,7.68
2022-08-20T05:02:41.997Z,7.75
2022-08-20T05:03:04.055Z,7.22
2022-08-20T05:03:27.282Z,6.95
2022-08-20T05:03:49.774Z,7.20
2022-08-20T05:04:11.579Z,6.95
2022-08-20T05:04:33.364Z,7.20
2022-08-20T05:04:55.138Z,7.50
2022-08-20T05:05:17.200Z,7.30
2022-08-20T05:05:39.449Z,7.10
2022-08-20T05:06:01.829Z,7.10
2022-08-20T05:06:30.034Z,7.07
2022-08-20T05:06:51.912Z,7.35
2022-08-20T05:07:18.941Z,7.13
2022-08-20T05:07:47.917Z,7.20
2022-08-20T05:08:19.537Z,7.30
2022-08-20T05:08:42.310Z,6.78
2022-08-20T05:09:04.954Z,7.03
2022-08-20T05:09:26.672Z,7.40
2022-08-20T05:09:48.459Z,7.38
2022-08-20T05:10:12.697Z,7.10
2022-08-20T05:10:36.927Z,7.47
2022-08-20T05:11:32.960Z,7.35
2022-08-20T05:11:41.029Z,7.00
2022-08-20T05:12:03.005Z,7.18
2022-08-20T05:12:24.798Z,7.53
2022-08-20T05:12:55.627Z,7.32
2022-08-20T05:13:22.139Z,7.20
2022-08-20T05:13:45.957Z,6.95
2022-08-20T05:14:09.594Z,7.20
2022-08-20T05:14:31.986Z,6.80
2022-08-20T05:14:54.524Z,6.78
2022-08-20T05:15:16.365Z,6.80
2022-08-20T05:15:39.068Z,6.72
2022-08-20T05:16:01.995Z,7.10
2022-08-20T05:16:24.480Z,6.63
2022-08-20T05:16:46.243Z,6.70
2022-08-20T05:17:08.424Z,6.40
2022-08-20T05:17:31.225Z,6.97
2022-08-20T05:18:00.900Z,7.07
2022-08-20T05:18:25.210Z,6.55
2022-08-20T05:18:50.473Z,6.72
2022-08-20T05:19:14.605Z,7.20
2022-08-20T05:19:38.982Z,7.10
2022-08-20T05:20:00.852Z,6.57
2022-08-20T05:20:22.885Z,6.47
2022-08-20T05:20:45.985Z,6.88
2022-08-20T05:21:09.039Z,7.03
2022-08-20T05:21:30.864Z,6.75
2022-08-20T05:21:53.686Z,7.38
2022-08-20T05:22:16.603Z,7.10
2022-08-20T05:22:39.681Z,6.70
2022-08-20T05:23:02.848Z,6.88
2022-08-20T05:23:24.610Z,6.72
2022-08-20T05:23:46.497Z,6.93
2022-08-20T05:24:11.847Z,6.35
2022-08-20T05:24:33.925Z,6.55
2022-08-20T05:24:56.845Z,6.57
2022-08-20T05:25:21.808Z,6.45
2022-08-20T05:25:45.254Z,6.75
2022-08-20T05:26:07.713Z,6.75
2022-08-20T05:26:29.507Z,7.03
2022-08-20T05:26:51.341Z,6.38
2022-08-20T05:27:14.071Z,6.88
2022-08-20T05:27:47.875Z,6.63
2022-08-20T05:28:13.327Z,6.90
2022-08-20T05:28:36.951Z,6.57